Portada
METAR-TAF:

METAR-TAF

Aeroports :

La Gomera, Espanya

latitud: 28-01-47N, longitud: 017-12-53W, altitud: 218 m

Observació

L'informe es va fer fa 13 minuts, a les 12:30 UTC
Vent 7 kt del Sud-Oest
Temperatura 23°C
Humitat 69%
Pressió 1019 hPa
Visibilitat 10 km o més
Escasses núvols a una alçada de 3000 ft

METAR: GCGM 021230Z 23007KT 9999 FEW030 23/17 Q1019 RMK R09/24005KT 160V290 ARP/24006KT 170V280

Hora: 13:43 (12:43 UTC)

Pronòstic

L'informe es va fer fa 4 hores i 43 minuts, a les 08:00 UTC
Pronòstic vàlid del 02 a les 09 UTC al 03 a les 09 UTC
Vent 8 kt del Sud-Oest
Visibilitat 10 km o més
Escasses núvols a una alçada de 2500 ft

TAF: GCGM 020800Z 0209/0309 22008KT 9999 FEW025 TX26/0214Z TN20/0306Z

Observacions i pronòstics meteorològics de més de 4000 aeroports (METAR i TAF).

Les estacions disponibles són els punts grocs i vermells al mapa.

Posi el ratolí al punt desitjat per veure el nom de l'estació.

Feu clic per veure les observacions i els pronòstics meteorològics.

Per canviar el mapa: feu clic els botons verds amb una creu de color negre per apropar; al botó verd amb un guió per allunyar la imatge; o en les fletxes verdes per a mapes adjacents.


METAR-TAF: